Погода Новодворищена 2 недели

Минская область, Белоруссия

25 мая-07 июня
  • 25мая
    Сегодня
    +10°
    +25°
    Облачно с прояснениями
    ВремяПогодаТемператураВлажностьДавлениеВетер, м/сВероятность осадков
    00:00Практически безоблачно+16°C71 %751 мм4.0 м/с2 %
    03:00Облачно с прояснениями+14°C68 %751 мм4.2 м/с2 %
    06:00Облачно с прояснениями+13°C67 %751 мм4.0 м/с2 %
    09:00Облачно с прояснениями+19°C62 %751 мм4.3 м/с2 %
    12:00Облачно с прояснениями+23°C53 %751 мм4.1 м/с2 %
    15:00Облачно с прояснениями+24°C40 %750 мм5.3 м/с9 %
    18:00Облачно с прояснениями+25°C41 %750 мм4.8 м/с11 %
    21:00Небольшая облачность+20°C64 %750 мм2.2 м/с6 %
  • 26мая
    Воскресенье
    +13°
    +25°
    Ясно и безоблачно
    ВремяПогодаТемператураВлажностьДавлениеВетер, м/сВероятность осадков
    00:00Облачно с прояснениями+16°C68 %750 мм2.4 м/с2 %
    03:00Ясно и безоблачно+14°C68 %750 мм2.4 м/с2 %
    06:00Ясно и безоблачно+12°C78 %750 мм1.7 м/с2 %
    09:00Ясно и безоблачно+19°C54 %751 мм1.9 м/с2 %
    12:00Ясно и безоблачно+23°C33 %751 мм3.0 м/с2 %
    15:00Ясно и безоблачно+24°C31 %751 мм3.1 м/с2 %
    18:00Ясно и безоблачно+24°C34 %750 мм3.0 м/с2 %
    21:00Ясно и безоблачно+19°C62 %750 мм2.5 м/с2 %
  • 27мая
    Понедельник
    +13°
    +26°
    Ясно и безоблачно
    ВремяПогодаТемператураВлажностьДавлениеВетер, м/сВероятность осадков
    00:00Ясно и безоблачно+15°C61 %750 мм1.5 м/с2 %
    03:00Ясно и безоблачно+15°C66 %750 мм1.9 м/с2 %
    06:00Ясно и безоблачно+14°C73 %750 мм2.0 м/с2 %
    09:00Ясно и безоблачно+20°C52 %750 мм1.6 м/с2 %
    12:00Ясно и безоблачно+24°C38 %750 мм3.1 м/с2 %
    15:00Ясно и безоблачно+26°C37 %749 мм3.2 м/с3 %
    18:00Ясно и безоблачно+25°C38 %749 мм2.8 м/с9 %
    21:00Ясно и безоблачно+20°C60 %748 мм2.2 м/с4 %
  • 28мая
    Вторник
    +14°
    +26°
    Ясно и безоблачно
    ВремяПогодаТемператураВлажностьДавлениеВетер, м/сВероятность осадков
    00:00Ясно и безоблачно+17°C65 %748 мм2.8 м/с2 %
    03:00Ясно и безоблачно+15°C80 %747 мм1.6 м/с2 %
    06:00Ясно и безоблачно+15°C87 %747 мм1.4 м/с2 %
    09:00Ясно и безоблачно+20°C56 %747 мм2.1 м/с2 %
    12:00Ясно и безоблачно+24°C33 %747 мм3.6 м/с2 %
    15:00Ясно и безоблачно+25°C35 %746 мм3.7 м/с14 %
    18:00Практически безоблачно+26°C32 %745 мм3.1 м/с29 %
    21:00Ясно и безоблачно+21°C59 %745 мм4.4 м/с8 %
  • 29мая
    Среда
    +13°
    +27°
    Облачно с прояснениями
    ВремяПогодаТемператураВлажностьДавлениеВетер, м/сВероятность осадков
    00:00Ясно и безоблачно+17°C84 %744 мм2.5 м/с4 %
    03:00Практически безоблачно+15°C93 %744 мм2.2 м/с2 %
    06:00Облачно с прояснениями+15°C90 %743 мм2.8 м/с2 %
    09:00Небольшая облачность+20°C68 %743 мм2.7 м/с2 %
    12:00Облачно с прояснениями+25°C38 %743 мм3.2 м/с9 %
    15:00Облачно с прояснениями+26°C30 %742 мм4.6 м/с34 %
    18:00Ясно и безоблачно+26°C31 %741 мм3.5 м/с35 %
    21:00Небольшая облачность+20°C53 %741 мм2.0 м/с8 %
Мы используем cookies
Соглашаюсь